createdAt,value
2022-11-13T00:02:10.594Z,102149.00
2022-11-13T00:08:31.674Z,102149.00
2022-11-13T00:14:52.489Z,102145.00
2022-11-13T00:21:25.192Z,102148.00
2022-11-13T00:27:46.178Z,102145.00
2022-11-13T00:34:33.071Z,102135.00
2022-11-13T00:40:47.513Z,102133.00
2022-11-13T00:47:08.060Z,102140.00
2022-11-13T00:53:28.512Z,102130.00
2022-11-13T00:59:49.235Z,102133.00
2022-11-13T01:06:27.664Z,102125.00
2022-11-13T01:12:48.900Z,102134.00
2022-11-13T01:19:09.805Z,102125.00
2022-11-13T01:25:31.326Z,102125.00
2022-11-13T01:31:52.123Z,102121.00
2022-11-13T01:38:15.205Z,102125.00
2022-11-13T01:44:50.962Z,102125.00
2022-11-13T01:51:14.782Z,102120.00
2022-11-13T01:57:36.034Z,102114.00
2022-11-13T02:03:56.409Z,102121.00
2022-11-13T02:10:17.140Z,102118.00
2022-11-13T02:16:40.304Z,102116.00
2022-11-13T02:23:03.358Z,102109.00
2022-11-13T02:29:23.866Z,102113.00
2022-11-13T02:35:44.613Z,102114.00
2022-11-13T02:42:05.515Z,102098.00
2022-11-13T02:48:26.936Z,102110.00
2022-11-13T02:54:47.954Z,102107.00
2022-11-13T03:01:09.294Z,102118.00
2022-11-13T03:07:31.005Z,102102.00
2022-11-13T03:13:52.173Z,102096.00
2022-11-13T03:20:12.884Z,102094.00
2022-11-13T03:26:34.230Z,102080.00
2022-11-13T03:32:56.422Z,102084.00
2022-11-13T03:39:17.079Z,102085.00
2022-11-13T03:45:37.922Z,102081.00
2022-11-13T03:51:58.933Z,102072.00
2022-11-13T03:58:21.402Z,102079.00
2022-11-13T04:04:42.416Z,102075.00
2022-11-13T04:11:11.363Z,102058.00
2022-11-13T04:17:32.120Z,102062.00
2022-11-13T04:23:53.693Z,102058.00
2022-11-13T04:30:14.303Z,102060.00
2022-11-13T04:36:34.864Z,102058.00
2022-11-13T04:42:55.642Z,102058.00
2022-11-13T04:49:16.045Z,102063.00
2022-11-13T04:55:36.631Z,102062.00
2022-11-13T05:01:57.819Z,102059.00
2022-11-13T05:08:18.612Z,102065.00
2022-11-13T05:14:40.775Z,102062.00
2022-11-13T05:21:02.344Z,102065.00
2022-11-13T05:27:22.820Z,102065.00
2022-11-13T05:33:43.754Z,102060.00
2022-11-13T05:40:05.347Z,102068.00
2022-11-13T05:46:28.347Z,102082.00
2022-11-13T05:52:49.170Z,102083.00
2022-11-13T05:59:10.128Z,102072.00
2022-11-13T06:05:30.958Z,102052.00
2022-11-13T06:11:51.609Z,102042.00
2022-11-13T06:18:12.584Z,102086.00
2022-11-13T06:24:33.374Z,102029.00
2022-11-13T06:30:54.095Z,102074.00
2022-11-13T06:37:14.694Z,101998.00
2022-11-13T06:43:35.413Z,102058.00
2022-11-13T06:49:56.160Z,102082.00
2022-11-13T06:56:17.772Z,102064.00
2022-11-13T07:02:38.452Z,102051.00
2022-11-13T07:08:59.308Z,102045.00
2022-11-13T07:15:20.124Z,101900.00
2022-11-13T07:21:40.721Z,101946.00
2022-11-13T07:28:01.324Z,101931.00
2022-11-13T07:34:22.374Z,101998.00
2022-11-13T07:40:43.011Z,101948.00
2022-11-13T07:47:04.227Z,101993.00
2022-11-13T07:53:24.824Z,101992.00
2022-11-13T07:59:45.557Z,101988.00
2022-11-13T08:06:08.086Z,101970.00
2022-11-13T08:12:28.827Z,102051.00
2022-11-13T08:18:50.470Z,102024.00
2022-11-13T08:25:11.174Z,102038.00
2022-11-13T08:31:32.233Z,102028.00
2022-11-13T08:37:53.061Z,102028.00
2022-11-13T08:44:15.129Z,102018.00
2022-11-13T08:50:36.123Z,102066.00
2022-11-13T08:57:00.731Z,102073.00
2022-11-13T09:03:24.042Z,102060.00
2022-11-13T09:09:44.872Z,102058.00
2022-11-13T09:16:05.900Z,102041.00
2022-11-13T09:22:27.120Z,102037.00
2022-11-13T09:28:48.064Z,102021.00
2022-11-13T09:35:09.112Z,102019.00
2022-11-13T09:41:44.147Z,102013.00
2022-11-13T09:48:38.446Z,102012.00
2022-11-13T09:54:59.884Z,101998.00
2022-11-13T10:01:30.312Z,101999.00
2022-11-13T10:08:11.543Z,101996.00
2022-11-13T10:14:37.272Z,101988.00
2022-11-13T10:21:26.955Z,101986.00
2022-11-13T10:28:48.340Z,101979.00
2022-11-13T10:35:01.972Z,101954.00
2022-11-13T10:41:22.984Z,101962.00
2022-11-13T10:48:03.791Z,101947.00
2022-11-13T10:54:28.516Z,101950.00
2022-11-13T11:00:50.114Z,101943.00
2022-11-13T11:07:24.047Z,101923.00
2022-11-13T11:13:44.842Z,101907.00
2022-11-13T11:20:25.879Z,101906.00
2022-11-13T11:26:52.527Z,101880.00
2022-11-13T11:33:26.165Z,101759.00
2022-11-13T11:39:57.606Z,101779.00
2022-11-13T11:46:24.473Z,101758.00
2022-11-13T11:52:56.394Z,101836.00
2022-11-13T11:59:41.005Z,101883.00
2022-11-13T12:06:49.774Z,101880.00
2022-11-13T12:13:32.262Z,101882.00
2022-11-13T12:20:24.190Z,101879.00
2022-11-13T12:27:14.485Z,101870.00
2022-11-13T12:33:54.555Z,101870.00
2022-11-13T12:40:44.733Z,101863.00
2022-11-13T12:47:09.262Z,101870.00
2022-11-13T12:53:32.313Z,101869.00
2022-11-13T12:59:57.584Z,101850.00
2022-11-13T13:06:43.082Z,101851.00
2022-11-13T13:13:30.352Z,101851.00
2022-11-13T13:20:02.239Z,101840.00
2022-11-13T13:26:28.611Z,101841.00
2022-11-13T13:33:15.729Z,101837.00
2022-11-13T13:39:55.232Z,101839.00
2022-11-13T13:46:24.779Z,101834.00
2022-11-13T13:52:55.313Z,101831.00
2022-11-13T13:59:20.345Z,101836.00
2022-11-13T14:05:41.076Z,101834.00
2022-11-13T14:12:09.272Z,101835.00
2022-11-13T14:18:31.928Z,101834.00
2022-11-13T14:24:56.694Z,101831.00
2022-11-13T14:31:17.776Z,101829.00
2022-11-13T14:37:40.313Z,101833.00
2022-11-13T14:44:01.423Z,101831.00
2022-11-13T14:50:24.314Z,101831.00
2022-11-13T14:56:45.212Z,101823.00
2022-11-13T15:03:07.689Z,101822.00
2022-11-13T15:09:31.158Z,101821.00
2022-11-13T15:15:51.878Z,101820.00
2022-11-13T15:22:26.443Z,101812.00
2022-11-13T15:28:47.916Z,101822.00
2022-11-13T15:35:15.237Z,101818.00
2022-11-13T15:41:36.588Z,101815.00
2022-11-13T15:47:57.468Z,101815.00
2022-11-13T15:54:37.577Z,101811.00
2022-11-13T16:00:58.361Z,101816.00
2022-11-13T16:07:28.127Z,101813.00
2022-11-13T16:13:49.287Z,101811.00
2022-11-13T16:20:13.114Z,101821.00
2022-11-13T16:26:34.006Z,101818.00
2022-11-13T16:32:54.800Z,101816.00
2022-11-13T16:39:17.234Z,101813.00
2022-11-13T16:45:38.881Z,101817.00
2022-11-13T16:51:59.658Z,101817.00
2022-11-13T16:58:20.469Z,101821.00
2022-11-13T17:04:41.648Z,101821.00
2022-11-13T17:11:02.465Z,101821.00
2022-11-13T17:17:23.953Z,101822.00
2022-11-13T17:23:44.970Z,101823.00
2022-11-13T17:30:06.519Z,101817.00
2022-11-13T17:36:27.273Z,101812.00
2022-11-13T17:42:49.774Z,101812.00
2022-11-13T17:49:10.872Z,101808.00
2022-11-13T17:55:31.707Z,101816.00
2022-11-13T18:01:52.857Z,101811.00
2022-11-13T18:08:14.116Z,101813.00
2022-11-13T18:14:34.657Z,101805.00
2022-11-13T18:20:55.690Z,101808.00
2022-11-13T18:27:16.768Z,101800.00
2022-11-13T18:33:37.766Z,101791.00
2022-11-13T18:39:59.209Z,101787.00
2022-11-13T18:46:21.880Z,101792.00
2022-11-13T18:52:43.279Z,101784.00
2022-11-13T18:59:04.275Z,101790.00
2022-11-13T19:05:25.429Z,101802.00
2022-11-13T19:11:46.459Z,101794.00
2022-11-13T19:18:07.798Z,101800.00
2022-11-13T19:24:28.962Z,101794.00
2022-11-13T19:30:50.096Z,101789.00
2022-11-13T19:37:14.916Z,101775.00
2022-11-13T19:43:40.915Z,101783.00
2022-11-13T19:50:01.929Z,101770.00
2022-11-13T19:56:24.015Z,101770.00
2022-11-13T20:02:44.936Z,101773.00
2022-11-13T20:09:06.237Z,101755.00
2022-11-13T20:15:27.009Z,101757.00
2022-11-13T20:21:47.935Z,101753.00
2022-11-13T20:28:08.860Z,101757.00
2022-11-13T20:34:29.923Z,101756.00
2022-11-13T20:40:51.462Z,101758.00
2022-11-13T20:47:12.397Z,101758.00
2022-11-13T20:53:34.136Z,101753.00
2022-11-13T20:59:55.158Z,101753.00
2022-11-13T21:06:21.419Z,101758.00
2022-11-13T21:12:42.174Z,101755.00
2022-11-13T21:19:03.360Z,101749.00
2022-11-13T21:25:23.890Z,101757.00
2022-11-13T21:31:44.776Z,101761.00
2022-11-13T21:38:05.830Z,101757.00
2022-11-13T21:44:26.816Z,101749.00
2022-11-13T21:50:48.050Z,101750.00
2022-11-13T21:57:09.018Z,101753.00
2022-11-13T22:03:30.091Z,101744.00
2022-11-13T22:09:51.018Z,101751.00
2022-11-13T22:16:13.134Z,101737.00
2022-11-13T22:22:34.134Z,101727.00
2022-11-13T22:28:55.593Z,101725.00
2022-11-13T22:35:16.330Z,101710.00
2022-11-13T22:41:37.292Z,101713.00
2022-11-13T22:47:58.509Z,101703.00
2022-11-13T22:54:19.061Z,101701.00
2022-11-13T23:00:39.872Z,101697.00
2022-11-13T23:07:00.571Z,101702.00
2022-11-13T23:13:21.369Z,101696.00
2022-11-13T23:19:42.250Z,101701.00
2022-11-13T23:26:03.042Z,101695.00
2022-11-13T23:32:23.838Z,101715.00
2022-11-13T23:38:44.651Z,101704.00
2022-11-13T23:45:06.280Z,101708.00
2022-11-13T23:51:27.117Z,101704.00
2022-11-13T23:57:47.939Z,101713.00
